Time;durP1;ratioP1;P1;durP2;ratioP2;P2;SDS_P1;SDS_P2;PMS_P1;PMS_P2;Temp;Humidity;BMP_temperature;BMP_pressure;BME280_temperature;BME280_humidity;BME280_pressure;Samples;Min_cycle;Max_cycle;Signal;HPM_P1;HPM_P2
2021/04/22 00:00:20;;;;;;;6.93;3.05;;;6.70;65.70;;;;;;5004326;28;20152;-73
2021/04/22 00:02:45;;;;;;;11.77;3.58;;;6.60;65.80;;;;;;5004807;28;20038;-74
2021/04/22 00:05:36;;;;;;;10.15;2.67;;;6.60;66.00;;;;;;5000728;28;20089;-75
2021/04/22 00:08:03;;;;;;;11.55;3.33;;;6.50;66.00;;;;;;4999217;28;20042;-75
2021/04/22 00:10:39;;;;;;;8.52;3.28;;;6.50;66.20;;;;;;4983870;28;20484;-73
2021/04/22 00:13:05;;;;;;;11.55;2.97;;;6.50;66.40;;;;;;5010278;28;20037;-77
2021/04/22 00:15:31;;;;;;;8.60;3.45;;;6.50;66.20;;;;;;5003018;28;20108;-74
2021/04/22 00:17:57;;;;;;;9.18;3.53;;;6.40;67.50;;;;;;5002950;28;20066;-73
2021/04/22 00:20:24;;;;;;;14.10;3.63;;;6.30;67.10;;;;;;5001034;28;20492;-75
2021/04/22 00:22:50;;;;;;;11.55;3.60;;;6.30;67.50;;;;;;4985891;28;20030;-73
2021/04/22 00:25:15;;;;;;;11.27;3.60;;;6.30;67.90;;;;;;5002714;28;20370;-74
2021/04/22 00:27:41;;;;;;;11.50;3.20;;;6.30;67.40;;;;;;5007587;28;20037;-75
2021/04/22 00:30:10;;;;;;;13.35;3.33;;;6.40;67.60;;;;;;4988477;28;20030;-75
2021/04/22 00:32:36;;;;;;;17.10;5.22;;;6.30;67.70;;;;;;5001632;28;20573;-74
2021/04/22 00:35:03;;;;;;;10.02;3.42;;;6.30;67.20;;;;;;4992338;28;20084;-75
2021/04/22 00:37:30;;;;;;;12.35;3.80;;;6.30;67.80;;;;;;5007861;28;20038;-77
2021/04/22 00:39:55;;;;;;;10.55;3.65;;;6.50;66.70;;;;;;5006934;28;20034;-75
2021/04/22 00:42:21;;;;;;;6.13;4.18;;;6.50;66.20;;;;;;5004588;28;20034;-73
2021/04/22 00:44:47;;;;;;;10.70;4.03;;;6.60;65.70;;;;;;5007440;28;20536;-75
2021/04/22 00:47:17;;;;;;;12.75;3.65;;;6.70;65.60;;;;;;5003621;28;20029;-74
2021/04/22 00:49:43;;;;;;;10.93;3.13;;;6.70;65.50;;;;;;5011003;28;20097;-75
2021/04/22 00:52:10;;;;;;;10.65;3.20;;;6.60;65.30;;;;;;5008797;28;20053;-74
2021/04/22 00:54:38;;;;;;;9.35;3.13;;;6.70;65.60;;;;;;5010067;28;20487;-74
2021/04/22 00:57:05;;;;;;;7.03;2.95;;;6.60;65.90;;;;;;4987682;28;20038;-75
2021/04/22 00:59:31;;;;;;;8.98;4.05;;;6.60;65.60;;;;;;5013938;28;20028;-73
2021/04/22 01:01:56;;;;;;;7.32;3.88;;;6.60;65.40;;;;;;5009584;28;20430;-75
2021/04/22 01:04:22;;;;;;;7.03;2.90;;;6.80;65.70;;;;;;4993536;28;507668;-75
2021/04/22 01:06:48;;;;;;;11.32;3.60;;;6.80;65.30;;;;;;5014434;28;20022;-74
2021/04/22 01:09:14;;;;;;;8.23;3.05;;;6.80;65.90;;;;;;5004512;28;20034;-74
2021/04/22 01:11:41;;;;;;;13.38;3.03;;;6.80;65.70;;;;;;4987560;28;20026;-74
2021/04/22 01:14:08;;;;;;;8.10;3.67;;;6.80;65.70;;;;;;4994553;28;20437;-74
2021/04/22 01:16:34;;;;;;;13.07;3.30;;;6.80;66.10;;;;;;5005225;28;20105;-74
2021/04/22 01:19:00;;;;;;;11.48;3.40;;;6.80;66.50;;;;;;5000668;28;20536;-74
2021/04/22 01:21:26;;;;;;;11.80;2.95;;;6.80;67.00;;;;;;4993337;28;20042;-74
2021/04/22 01:23:53;;;;;;;12.35;4.13;;;6.80;67.60;;;;;;5013835;28;20061;-75
2021/04/22 01:26:25;;;;;;;11.98;3.55;;;6.70;68.70;;;;;;5004367;28;20053;-73
2021/04/22 01:28:53;;;;;;;9.15;4.35;;;6.80;68.00;;;;;;5011218;28;20056;-77
2021/04/22 01:31:20;;;;;;;12.27;2.65;;;6.90;67.90;;;;;;5007543;28;20030;-76
2021/04/22 01:33:46;;;;;;;10.63;3.22;;;6.80;68.70;;;;;;5008243;28;20080;-75
2021/04/22 01:36:12;;;;;;;12.23;3.75;;;6.60;69.80;;;;;;4990910;28;20042;-76
2021/04/22 01:38:38;;;;;;;8.82;3.17;;;6.70;69.30;;;;;;5008296;28;20491;-73
2021/04/22 01:41:04;;;;;;;10.55;3.08;;;6.80;70.00;;;;;;5008339;28;20028;-73
2021/04/22 01:43:31;;;;;;;10.73;3.03;;;6.80;70.30;;;;;;4996106;28;20049;-73
2021/04/22 01:45:58;;;;;;;10.35;3.60;;;6.80;70.90;;;;;;5008625;28;20018;-74
2021/04/22 01:48:25;;;;;;;10.85;4.07;;;6.70;71.60;;;;;;5011505;28;20037;-74
2021/04/22 01:50:51;;;;;;;13.73;5.05;;;6.70;72.90;;;;;;5018434;28;20080;-73
2021/04/22 01:53:16;;;;;;;10.45;3.72;;;6.70;72.60;;;;;;5016257;28;20022;-74
2021/04/22 01:55:48;;;;;;;13.32;3.95;;;6.80;73.30;;;;;;5005262;28;20030;-74
2021/04/22 01:58:17;;;;;;;11.43;3.80;;;6.70;74.20;;;;;;4999507;28;20052;-72
2021/04/22 02:00:52;;;;;;;12.55;3.20;;;6.80;74.30;;;;;;5017259;28;20120;-73
2021/04/22 02:03:20;;;;;;;11.00;4.28;;;6.80;74.70;;;;;;5015618;28;20037;-73
2021/04/22 02:05:46;;;;;;;9.85;3.42;;;6.80;75.50;;;;;;5022064;28;20042;-72
2021/04/22 02:08:12;;;;;;;10.90;3.55;;;6.60;76.30;;;;;;5016156;28;20022;-74
2021/04/22 02:10:39;;;;;;;14.05;3.92;;;6.70;76.80;;;;;;5013751;28;20037;-73
2021/04/22 02:13:06;;;;;;;10.02;2.85;;;6.70;76.90;;;;;;5012509;28;20482;-73
2021/04/22 02:15:32;;;;;;;10.40;4.05;;;6.70;76.90;;;;;;5009724;28;20022;-76
2021/04/22 02:17:58;;;;;;;10.07;5.35;;;6.70;77.30;;;;;;5007265;28;20777;-75
2021/04/22 02:20:27;;;;;;;15.25;4.15;;;6.80;78.10;;;;;;5007199;28;20061;-74
2021/04/22 02:22:53;;;;;;;11.73;4.00;;;6.70;77.50;;;;;;5003081;28;20442;-74
2021/04/22 02:25:22;;;;;;;15.65;4.78;;;6.70;78.10;;;;;;5006951;28;20385;-74
2021/04/22 02:27:48;;;;;;;9.18;2.97;;;6.70;78.20;;;;;;5007391;28;20052;-73
2021/04/22 02:30:17;;;;;;;8.07;3.65;;;6.70;78.40;;;;;;4992586;28;20517;-74
2021/04/22 02:32:43;;;;;;;13.30;3.42;;;6.70;79.00;;;;;;5003910;28;20447;-74
2021/04/22 02:35:11;;;;;;;15.93;3.20;;;6.70;78.30;;;;;;5009942;28;20026;-74
2021/04/22 02:37:37;;;;;;;13.85;3.72;;;6.60;79.30;;;;;;5009214;28;20033;-73
2021/04/22 02:40:08;;;;;;;7.93;3.85;;;6.70;79.70;;;;;;5013298;28;20042;-73
2021/04/22 02:42:37;;;;;;;10.57;3.88;;;6.60;80.10;;;;;;4989887;28;20331;-75
2021/04/22 02:45:18;;;;;;;10.43;4.13;;;6.60;80.00;;;;;;5017420;28;20108;-72
2021/04/22 02:47:44;;;;;;;7.80;3.30;;;6.60;79.90;;;;;;5005884;28;20030;-73
2021/04/22 02:50:13;;;;;;;13.48;3.30;;;6.70;80.30;;;;;;5012801;28;20033;-75
2021/04/22 02:52:39;;;;;;;12.38;3.38;;;6.60;81.00;;;;;;4987179;28;20085;-72
2021/04/22 02:55:05;;;;;;;8.65;3.00;;;6.70;81.00;;;;;;4992030;28;20039;-72
2021/04/22 02:57:31;;;;;;;11.30;3.13;;;6.60;81.60;;;;;;5008341;28;20034;-74
2021/04/22 02:59:57;;;;;;;11.40;4.20;;;6.40;83.40;;;;;;4995522;28;20026;-74
2021/04/22 03:02:22;;;;;;;11.98;3.97;;;6.50;84.30;;;;;;5008321;28;20034;-75
2021/04/22 03:04:48;;;;;;;9.10;3.47;;;6.50;84.60;;;;;;5016133;28;20099;-74
2021/04/22 03:07:13;;;;;;;12.18;3.22;;;6.50;84.40;;;;;;4988693;28;20096;-73
2021/04/22 03:09:39;;;;;;;12.50;3.47;;;6.60;84.60;;;;;;5010572;28;20363;-74
2021/04/22 03:12:06;;;;;;;13.88;3.97;;;6.50;85.10;;;;;;4989515;28;20070;-74
2021/04/22 03:14:31;;;;;;;12.68;3.95;;;6.50;86.80;;;;;;5004910;28;20040;-74
2021/04/22 03:16:57;;;;;;;8.30;3.55;;;6.60;86.20;;;;;;5009157;28;20041;-76
2021/04/22 03:19:22;;;;;;;11.45;3.45;;;6.50;87.10;;;;;;5009207;28;20025;-74
2021/04/22 03:21:49;;;;;;;10.88;3.92;;;6.50;87.90;;;;;;5006486;28;20486;-74
2021/04/22 03:24:14;;;;;;;12.20;2.95;;;6.60;88.50;;;;;;4989472;28;20497;-74
2021/04/22 03:26:40;;;;;;;13.15;4.53;;;6.50;88.90;;;;;;4972109;28;20030;-74
2021/04/22 03:29:05;;;;;;;10.43;3.63;;;6.50;90.00;;;;;;5010007;28;20030;-76
2021/04/22 03:31:31;;;;;;;13.77;4.15;;;6.50;90.20;;;;;;5016115;28;20093;-74
2021/04/22 03:33:56;;;;;;;12.38;4.13;;;6.50;90.30;;;;;;5011492;28;20041;-74
2021/04/22 03:36:22;;;;;;;11.93;3.30;;;6.50;90.70;;;;;;4994496;28;20065;-73
2021/04/22 03:38:47;;;;;;;9.25;3.13;;;6.40;91.20;;;;;;5013011;28;20552;-75
2021/04/22 03:41:13;;;;;;;15.85;3.95;;;6.40;91.70;;;;;;4989658;28;20042;-75
2021/04/22 03:43:39;;;;;;;7.22;3.90;;;6.30;92.40;;;;;;5010857;28;20029;-74
2021/04/22 03:46:05;;;;;;;10.18;3.25;;;6.40;92.40;;;;;;4996995;28;20390;-74
2021/04/22 03:48:30;;;;;;;12.93;3.13;;;6.40;92.70;;;;;;5013348;28;20406;-75
2021/04/22 03:50:59;;;;;;;13.23;3.83;;;6.40;92.80;;;;;;5007814;28;20041;-73
2021/04/22 03:53:24;;;;;;;11.18;3.75;;;6.30;93.50;;;;;;5012174;28;20041;-75
2021/04/22 03:55:50;;;;;;;12.95;3.45;;;6.30;93.80;;;;;;5009233;28;20041;-74
2021/04/22 03:58:16;;;;;;;11.27;3.70;;;6.30;93.70;;;;;;5013981;28;20523;-71
2021/04/22 04:00:41;;;;;;;14.55;4.03;;;6.20;94.30;;;;;;5015800;28;20022;-75
2021/04/22 04:03:07;;;;;;;11.52;3.50;;;6.30;94.30;;;;;;5018346;28;20063;-72
2021/04/22 04:05:34;;;;;;;15.23;4.55;;;6.20;94.80;;;;;;5014609;28;20053;-75
2021/04/22 04:08:00;;;;;;;13.25;3.85;;;6.30;94.50;;;;;;5008410;28;20030;-75
2021/04/22 04:10:25;;;;;;;16.88;3.45;;;6.10;95.00;;;;;;5010256;28;20033;-73
2021/04/22 04:12:51;;;;;;;10.20;3.60;;;6.20;95.00;;;;;;5013723;28;20116;-71
2021/04/22 04:15:18;;;;;;;9.80;3.42;;;6.20;94.80;;;;;;5014560;28;20014;-75
2021/04/22 04:17:45;;;;;;;10.00;3.80;;;6.20;94.90;;;;;;5010474;28;20057;-77
2021/04/22 04:20:13;;;;;;;11.95;3.03;;;6.20;95.40;;;;;;4998544;28;20473;-74
2021/04/22 04:22:38;;;;;;;10.50;3.67;;;6.20;95.20;;;;;;5012011;28;20030;-74
2021/04/22 04:25:07;;;;;;;11.88;3.90;;;6.30;94.50;;;;;;5006637;28;20178;-71
2021/04/22 04:27:33;;;;;;;15.90;5.55;;;6.30;94.40;;;;;;5004350;28;20145;-73
2021/04/22 04:29:58;;;;;;;12.52;4.32;;;6.30;94.90;;;;;;5009882;28;20061;-73
2021/04/22 04:32:27;;;;;;;8.70;3.33;;;6.30;94.40;;;;;;4990158;28;20021;-71
2021/04/22 04:34:53;;;;;;;11.93;3.78;;;6.30;94.60;;;;;;5001647;28;20037;-70
2021/04/22 04:37:18;;;;;;;15.00;4.07;;;6.30;94.60;;;;;;5005369;28;20052;-71
2021/04/22 04:39:44;;;;;;;14.40;3.53;;;6.40;94.10;;;;;;5003961;28;20120;-71
2021/04/22 04:42:10;;;;;;;11.15;3.45;;;6.40;94.20;;;;;;5008263;28;20023;-71
2021/04/22 04:44:36;;;;;;;14.98;4.78;;;6.50;94.20;;;;;;5009231;28;20029;-72
2021/04/22 04:47:05;;;;;;;13.73;3.80;;;6.50;93.80;;;;;;5012813;28;20521;-71
2021/04/22 04:49:30;;;;;;;10.30;4.88;;;6.40;94.00;;;;;;4988739;28;20031;-70
2021/04/22 04:51:56;;;;;;;16.25;4.03;;;6.50;93.80;;;;;;5011380;28;20064;-71
2021/04/22 04:54:21;;;;;;;14.93;5.05;;;6.60;93.60;;;;;;4990936;28;20026;-73
2021/04/22 04:56:47;;;;;;;13.23;3.95;;;6.50;93.60;;;;;;5011187;28;20038;-73
2021/04/22 04:59:13;;;;;;;8.90;3.40;;;6.50;93.50;;;;;;5006511;28;20038;-72
2021/04/22 05:01:42;;;;;;;14.18;3.92;;;6.40;94.00;;;;;;4996293;28;20026;-74
2021/04/22 05:04:08;;;;;;;14.32;3.53;;;5.60;93.80;;;;;;4989312;28;20037;-71
2021/04/22 05:06:35;;;;;;;14.30;4.25;;;6.60;93.50;;;;;;5016241;28;20046;-71
2021/04/22 05:09:00;;;;;;;13.30;4.35;;;6.70;93.20;;;;;;5006217;28;20389;-73
2021/04/22 05:11:26;;;;;;;11.35;3.53;;;6.90;92.70;;;;;;5010534;28;20048;-71
2021/04/22 05:13:52;;;;;;;10.48;3.85;;;6.70;92.80;;;;;;4995352;28;20041;-71
2021/04/22 05:16:18;;;;;;;12.73;4.63;;;6.90;92.50;;;;;;5009764;28;20038;-71
2021/04/22 05:18:43;;;;;;;12.13;3.92;;;6.90;91.90;;;;;;5011020;28;20033;-71
2021/04/22 05:21:09;;;;;;;13.63;3.40;;;6.90;91.70;;;;;;5012116;28;20029;-71
2021/04/22 05:23:34;;;;;;;18.40;4.80;;;6.90;91.90;;;;;;5011669;28;20121;-72
2021/04/22 05:26:00;;;;;;;11.07;3.50;;;6.90;92.00;;;;;;5002916;28;20113;-73
2021/04/22 05:28:26;;;;;;;12.13;4.82;;;7.10;91.80;;;;;;4996492;28;20057;-72
2021/04/22 05:30:51;;;;;;;11.52;4.13;;;7.20;91.20;;;;;;5006923;28;20034;-72
2021/04/22 05:33:17;;;;;;;15.32;5.53;;;7.20;91.40;;;;;;5006167;28;20434;-70
2021/04/22 05:35:44;;;;;;;11.75;4.18;;;7.20;90.90;;;;;;5010680;28;20033;-71
2021/04/22 05:38:09;;;;;;;14.15;4.82;;;7.30;90.10;;;;;;5011859;28;20038;-71
2021/04/22 05:40:38;;;;;;;16.38;4.22;;;7.30;90.10;;;;;;5009992;28;20040;-72
2021/04/22 05:43:08;;;;;;;9.98;3.92;;;7.40;90.00;;;;;;5011646;28;20034;-72
2021/04/22 05:45:35;;;;;;;14.32;4.28;;;7.60;89.00;;;;;;5010040;28;20133;-72
2021/04/22 05:48:01;;;;;;;9.63;3.80;;;7.60;88.00;;;;;;5002374;28;20112;-71
2021/04/22 05:50:33;;;;;;;11.07;3.90;;;7.70;87.50;;;;;;5008717;28;20358;-73
2021/04/22 05:52:59;;;;;;;11.80;4.30;;;7.70;87.20;;;;;;5011084;28;20021;-74
2021/04/22 05:55:25;;;;;;;10.70;3.95;;;7.70;87.10;;;;;;5012452;28;20064;-72
2021/04/22 05:57:55;;;;;;;18.67;4.28;;;7.60;87.90;;;;;;5010906;28;20072;-73
2021/04/22 06:00:24;;;;;;;14.63;4.50;;;7.70;87.10;;;;;;4999754;28;20023;-71
2021/04/22 06:02:50;;;;;;;11.63;4.45;;;7.80;85.80;;;;;;4999871;28;20076;-76
2021/04/22 06:05:16;;;;;;;11.55;4.05;;;7.90;85.00;;;;;;5008187;28;20042;-72
2021/04/22 06:07:41;;;;;;;14.60;4.68;;;7.90;85.30;;;;;;5011600;28;20109;-71
2021/04/22 06:10:09;;;;;;;14.85;3.95;;;8.00;84.20;;;;;;5011176;28;20037;-71
2021/04/22 06:12:35;;;;;;;10.60;3.72;;;7.80;84.20;;;;;;5009268;28;20069;-72
2021/04/22 06:15:03;;;;;;;12.20;3.90;;;8.00;86.30;;;;;;5002469;28;20058;-72
2021/04/22 06:17:28;;;;;;;16.13;4.55;;;8.00;85.10;;;;;;5014171;28;20034;-71
2021/04/22 06:19:54;;;;;;;15.93;5.07;;;8.00;85.30;;;;;;5009919;28;20426;-71
2021/04/22 06:22:20;;;;;;;15.98;4.20;;;7.90;86.30;;;;;;5008147;28;20038;-71
2021/04/22 06:24:48;;;;;;;13.48;3.92;;;7.80;85.70;;;;;;5007235;28;20042;-72
2021/04/22 06:27:14;;;;;;;9.10;3.72;;;7.80;85.60;;;;;;5011795;28;20073;-72
2021/04/22 06:29:40;;;;;;;16.05;4.10;;;8.00;84.30;;;;;;5004455;28;20087;-72
2021/04/22 06:32:07;;;;;;;11.63;3.58;;;7.90;84.90;;;;;;5010873;28;20038;-71
2021/04/22 06:34:33;;;;;;;14.50;3.88;;;8.30;81.40;;;;;;5007632;28;20114;-72
2021/04/22 06:37:02;;;;;;;9.73;3.30;;;8.30;81.50;;;;;;4989334;28;20398;-72
2021/04/22 06:39:29;;;;;;;13.20;3.22;;;8.50;78.70;;;;;;5009585;28;20088;-71
2021/04/22 06:41:55;;;;;;;11.15;3.38;;;8.30;80.30;;;;;;5011525;28;20052;-71
2021/04/22 06:44:21;;;;;;;9.55;3.10;;;8.40;79.80;;;;;;5008440;28;20033;-70
2021/04/22 06:46:49;;;;;;;11.30;3.40;;;8.60;78.20;;;;;;5006987;28;20026;-72
2021/04/22 06:49:18;;;;;;;12.50;3.17;;;9.20;74.40;;;;;;5010454;28;20029;-72
2021/04/22 06:51:47;;;;;;;8.20;2.90;;;9.20;75.00;;;;;;5006121;28;20018;-72
2021/04/22 06:54:16;;;;;;;13.98;4.15;;;9.10;75.00;;;;;;4975535;28;20040;-72
2021/04/22 06:56:44;;;;;;;9.52;3.42;;;8.90;75.00;;;;;;4985098;28;20118;-74
2021/04/22 06:59:11;;;;;;;14.43;4.40;;;8.90;75.90;;;;;;5011378;28;20032;-72
2021/04/22 07:01:39;;;;;;;8.48;3.40;;;8.80;77.40;;;;;;5012032;28;20051;-72
2021/04/22 07:04:06;;;;;;;16.90;4.57;;;8.40;79.60;;;;;;5017379;28;20098;-72
2021/04/22 07:06:31;;;;;;;13.98;4.05;;;8.40;79.40;;;;;;5011278;28;20042;-73
2021/04/22 07:08:58;;;;;;;12.48;3.47;;;8.20;82.00;;;;;;5012241;28;20028;-72
2021/04/22 07:11:24;;;;;;;15.32;3.92;;;8.20;82.10;;;;;;5009469;28;20049;-73
2021/04/22 07:13:50;;;;;;;14.07;4.70;;;8.30;81.30;;;;;;5009247;28;20026;-72
2021/04/22 07:16:15;;;;;;;11.70;3.47;;;8.50;80.30;;;;;;5005346;28;20517;-71
2021/04/22 07:18:41;;;;;;;11.38;3.78;;;8.60;79.30;;;;;;5009674;28;20022;-71
2021/04/22 07:21:07;;;;;;;10.40;3.78;;;8.30;81.80;;;;;;5003861;28;20030;-73
2021/04/22 07:23:33;;;;;;;17.42;3.90;;;8.30;82.10;;;;;;5005212;28;20026;-72
2021/04/22 07:26:04;;;;;;;11.18;3.15;;;8.70;78.60;;;;;;5003646;28;20101;-72
2021/04/22 07:28:30;;;;;;;;;;;8.70;78.40;;;;;;5011148;28;20112;-72
2021/04/22 07:30:56;;;;;;;14.95;4.80;;;9.00;77.10;;;;;;5005807;28;19913;-71
2021/04/22 07:33:24;;;;;;;14.25;3.80;;;9.00;77.30;;;;;;5005301;28;20025;-71
2021/04/22 07:35:50;;;;;;;10.77;3.38;;;9.40;74.70;;;;;;5008740;28;20031;-72
2021/04/22 07:38:16;;;;;;;15.13;3.97;;;9.30;73.50;;;;;;5009689;28;20042;-73
2021/04/22 07:40:44;;;;;;;15.88;4.28;;;8.90;75.90;;;;;;5010345;28;20022;-72
2021/04/22 07:43:10;;;;;;;12.50;4.18;;;8.90;76.30;;;;;;5008703;28;20022;-72
2021/04/22 07:45:41;;;;;;;10.40;3.45;;;8.90;77.10;;;;;;4990188;28;20029;-74
2021/04/22 07:48:08;;;;;;;8.98;3.35;;;8.90;75.60;;;;;;4998073;28;20102;-72
2021/04/22 07:50:34;;;;;;;11.25;3.15;;;9.00;77.50;;;;;;5011474;28;20036;-71
2021/04/22 07:53:00;;;;;;;13.13;4.10;;;8.90;76.30;;;;;;5012173;28;20045;-72
2021/04/22 07:55:31;;;;;;;10.63;3.40;;;9.00;76.80;;;;;;5008118;28;20035;-72
2021/04/22 07:57:57;;;;;;;8.27;2.95;;;9.00;76.10;;;;;;5003100;28;20508;-72
2021/04/22 08:00:24;;;;;;;10.85;3.38;;;9.20;74.70;;;;;;5001322;28;20054;-73
2021/04/22 08:02:53;;;;;;;9.27;3.20;;;9.40;74.10;;;;;;5005607;28;20030;-71
2021/04/22 08:05:25;;;;;;;10.25;3.58;;;9.10;74.20;;;;;;4998637;28;20105;-72
2021/04/22 08:07:50;;;;;;;;;;;9.70;73.30;;;;;;5005051;28;20074;-72
2021/04/22 08:10:19;;;;;;;10.23;3.03;;;10.40;69.50;;;;;;4978065;28;21237;-72
2021/04/22 08:12:48;;;;;;;13.10;4.35;;;10.30;67.30;;;;;;5001116;28;20023;-73
2021/04/22 08:15:15;;;;;;;10.23;3.70;;;10.30;68.10;;;;;;5002293;28;20025;-73
2021/04/22 08:17:43;;;;;;;11.60;3.38;;;9.80;68.90;;;;;;5007899;28;20034;-71
2021/04/22 08:20:19;;;;;;;11.48;3.20;;;10.70;66.30;;;;;;5003966;28;20037;-72
2021/04/22 08:22:45;;;;;;;8.88;3.30;;;10.60;66.80;;;;;;5007774;28;20053;-73
2021/04/22 08:25:19;;;;;;;11.10;3.75;;;10.80;64.50;;;;;;5014029;28;20041;-70
2021/04/22 08:27:50;;;;;;;12.73;4.20;;;10.80;65.00;;;;;;5012953;28;20027;-72
2021/04/22 08:30:47;;;;;;;7.47;3.90;;;11.70;62.50;;;;;;5007021;28;20547;-70
2021/04/22 08:33:15;;;;;;;9.52;2.80;;;11.70;62.30;;;;;;4996853;28;20030;-73
2021/04/22 08:35:43;;;;;;;7.35;3.70;;;11.40;61.90;;;;;;5009012;28;20029;-71
2021/04/22 08:38:12;;;;;;;8.23;2.75;;;12.20;61.20;;;;;;5007042;28;20038;-73
2021/04/22 08:40:39;;;;;;;8.63;3.65;;;12.60;58.50;;;;;;5006900;28;20022;-71
2021/04/22 08:43:08;;;;;;;10.48;2.50;;;13.90;52.90;;;;;;5012738;28;20551;-72
2021/04/22 08:45:37;;;;;;;8.25;3.13;;;13.90;53.40;;;;;;5008876;28;20505;-72
2021/04/22 08:48:04;;;;;;;9.65;3.72;;;13.30;54.90;;;;;;5006042;28;20035;-72
2021/04/22 08:50:32;;;;;;;6.00;2.65;;;13.20;54.90;;;;;;4989867;28;20061;-72
2021/04/22 08:53:00;;;;;;;7.53;3.13;;;13.60;53.90;;;;;;5003458;28;20030;-72
2021/04/22 08:55:32;;;;;;;11.02;3.55;;;13.80;53.00;;;;;;5003179;28;20391;-72
2021/04/22 08:57:59;;;;;;;9.75;3.50;;;12.40;55.60;;;;;;5004145;28;20073;-72
2021/04/22 09:00:37;;;;;;;9.00;2.88;;;12.90;55.00;;;;;;4988757;28;20034;-71
2021/04/22 09:06:10;;;;;;;13.68;3.50;;;13.40;53.30;;;;;;5004011;28;20042;-73
2021/04/22 09:08:48;;;;;;;7.82;2.70;;;12.70;53.80;;;;;;5007587;28;20026;-72
2021/04/22 09:11:16;;;;;;;8.95;3.17;;;12.50;55.10;;;;;;5006789;28;20469;-72
2021/04/22 09:13:44;;;;;;;8.23;2.97;;;12.20;55.50;;;;;;5006046;28;20034;-73
2021/04/22 09:16:18;;;;;;;11.70;3.08;;;12.10;56.70;;;;;;5008711;28;20030;-75
2021/04/22 09:19:01;;;;;;;10.75;3.35;;;12.10;57.20;;;;;;5007660;28;20034;-72
2021/04/22 09:21:34;;;;;;;9.45;3.72;;;11.20;58.70;;;;;;5008392;28;20027;-78
2021/04/22 09:24:14;;;;;;;6.90;2.72;;;11.40;59.30;;;;;;5008004;28;20022;-71
2021/04/22 09:26:57;;;;;;;7.47;3.08;;;11.70;59.00;;;;;;5005592;28;20038;-72
2021/04/22 09:29:44;;;;;;;8.43;2.63;;;11.80;58.90;;;;;;4991127;28;20057;-73
2021/04/22 09:32:15;;;;;;;9.30;3.47;;;13.40;56.00;;;;;;4987306;28;20069;-71
2021/04/22 09:34:48;;;;;;;6.57;3.00;;;14.80;52.90;;;;;;4985564;28;20457;-73
2021/04/22 09:37:21;;;;;;;7.53;3.53;;;14.90;50.00;;;;;;5001561;28;20034;-72
2021/04/22 09:39:49;;;;;;;7.55;3.10;;;13.70;52.30;;;;;;4995402;28;20382;-72
2021/04/22 09:42:21;;;;;;;12.75;3.28;;;12.90;53.80;;;;;;5004587;28;20034;-73
2021/04/22 09:44:49;;;;;;;7.30;2.80;;;12.70;55.30;;;;;;5008872;28;20037;-72
2021/04/22 09:47:20;;;;;;;9.68;3.70;;;12.90;54.70;;;;;;5007453;28;20153;-72
2021/04/22 09:50:01;;;;;;;7.03;2.65;;;14.50;53.30;;;;;;5006325;28;20034;-72
2021/04/22 09:52:38;;;;;;;9.48;3.03;;;15.30;50.00;;;;;;5002100;28;20033;-73
2021/04/22 09:55:09;;;;;;;7.28;2.78;;;15.10;49.20;;;;;;5005668;28;20493;-74
2021/04/22 09:57:36;;;;;;;7.95;3.40;;;13.90;50.40;;;;;;5002200;28;20061;-73
2021/04/22 10:00:13;;;;;;;6.18;2.92;;;14.20;51.20;;;;;;4987623;28;20135;-73
2021/04/22 10:02:52;;;;;;;8.77;3.47;;;14.30;50.80;;;;;;5003477;28;20034;-73
2021/04/22 10:05:28;;;;;;;7.03;2.55;;;14.30;50.30;;;;;;5004880;28;20088;-72
2021/04/22 10:08:14;;;;;;;7.68;2.60;;;14.20;49.90;;;;;;5002745;28;20080;-71
2021/04/22 10:10:44;;;;;;;6.63;2.80;;;14.00;51.10;;;;;;5004181;28;20038;-72
2021/04/22 10:13:11;;;;;;;9.38;4.00;;;15.30;48.00;;;;;;5002767;28;20080;-72
2021/04/22 10:15:47;;;;;;;8.68;4.18;;;15.30;48.50;;;;;;5004070;28;20099;-72
2021/04/22 10:18:12;;;;;;;7.03;3.00;;;14.80;48.50;;;;;;5003220;28;20050;-75
2021/04/22 10:20:39;;;;;;;9.15;2.90;;;14.50;48.70;;;;;;5004073;28;20014;-73
2021/04/22 10:23:07;;;;;;;7.13;2.53;;;14.70;47.90;;;;;;5004220;28;20038;-72
2021/04/22 10:25:36;;;;;;;4.20;2.15;;;14.60;46.10;;;;;;4990793;28;21335;-74
2021/04/22 10:28:08;;;;;;;7.15;2.75;;;14.60;46.80;;;;;;4984773;28;20026;-72
2021/04/22 10:30:41;;;;;;;6.57;2.58;;;14.00;48.10;;;;;;5002527;28;20066;-72
2021/04/22 10:33:07;;;;;;;5.20;1.83;;;13.20;49.70;;;;;;4998025;28;20037;-74
2021/04/22 10:35:35;;;;;;;8.65;3.58;;;15.60;52.00;;;;;;5004869;28;20529;-72
2021/04/22 10:38:03;;;;;;;6.22;2.65;;;12.60;51.50;;;;;;4987283;28;20136;-73
2021/04/22 10:40:36;;;;;;;10.93;2.78;;;13.90;50.50;;;;;;5002255;28;20080;-73
2021/04/22 10:43:04;;;;;;;7.07;2.75;;;14.60;47.40;;;;;;4988331;28;20034;-73
2021/04/22 10:45:35;;;;;;;5.53;2.17;;;14.40;47.50;;;;;;5006973;28;20042;-74
2021/04/22 10:48:00;;;;;;;;;;;13.90;48.40;;;;;;5004833;28;20468;-72
2021/04/22 10:50:44;;;;;;;3.67;2.00;;;13.60;48.70;;;;;;4998182;28;20412;-73
2021/04/22 10:53:12;;;;;;;5.30;2.50;;;13.50;47.90;;;;;;5004909;28;20045;-73
2021/04/22 10:55:41;;;;;;;16.35;4.80;;;13.40;48.30;;;;;;5001102;28;20026;-73
2021/04/22 10:58:20;;;;;;;4.93;2.10;;;14.40;46.90;;;;;;5001201;28;20045;-73
2021/04/22 11:00:47;;;;;;;9.10;2.47;;;14.60;43.80;;;;;;4987147;28;20027;-72
2021/04/22 11:04:01;;;;;;;;;;;;;;;;;;;;;
2021/04/22 11:06:33;;;;;;;5.32;1.90;;;13.90;44.80;;;;;;4975823;28;20469;-72
2021/04/22 11:09:21;;;;;;;6.07;1.80;;;14.00;45.40;;;;;;4986119;28;20034;-73
2021/04/22 11:12:04;;;;;;;5.75;2.35;;;14.10;45.80;;;;;;4984841;28;20037;-74
2021/04/22 11:14:36;;;;;;;13.82;6.25;;;15.40;45.10;;;;;;4982954;28;20537;-74
2021/04/22 11:17:03;;;;;;;6.47;2.90;;;17.10;43.20;;;;;;4953383;28;20430;-72
2021/04/22 11:19:36;;;;;;;13.48;3.05;;;17.90;42.10;;;;;;4977476;28;20081;-70
2021/04/22 11:22:23;;;;;;;7.13;3.08;;;18.50;40.60;;;;;;4982904;28;20482;-72
2021/04/22 11:25:00;;;;;;;6.50;1.75;;;18.00;40.60;;;;;;4990348;28;20030;-73
2021/04/22 11:27:29;;;;;;;4.00;2.22;;;17.60;39.50;;;;;;4983829;28;20041;-75
2021/04/22 11:30:02;;;;;;;8.60;2.40;;;15.80;42.20;;;;;;4985214;28;20106;-74
2021/04/22 11:32:35;;;;;;;5.72;2.75;;;15.00;43.10;;;;;;4995470;28;20052;-74
2021/04/22 11:35:17;;;;;;;6.38;1.98;;;15.00;43.80;;;;;;4991909;28;20485;-74
2021/04/22 11:37:50;;;;;;;7.78;2.67;;;14.70;43.50;;;;;;4980551;28;20108;-72
2021/04/22 11:40:19;;;;;;;3.97;2.35;;;15.80;42.20;;;;;;4991941;28;20030;-74
2021/04/22 11:42:49;;;;;;;7.22;2.47;;;16.80;40.50;;;;;;4991706;28;20537;-73
2021/04/22 11:45:39;;;;;;;4.63;2.92;;;16.70;40.30;;;;;;4983433;28;20041;-75
2021/04/22 11:48:11;;;;;;;6.53;2.63;;;15.40;42.10;;;;;;4987419;28;20141;-71
2021/04/22 11:50:54;;;;;;;7.25;2.40;;;15.00;43.20;;;;;;4989729;28;20031;-73
2021/04/22 11:53:36;;;;;;;9.60;2.92;;;16.00;41.60;;;;;;4962096;28;20494;-74
2021/04/22 11:56:03;;;;;;;7.20;2.85;;;17.20;41.00;;;;;;4985348;28;20068;-74
2021/04/22 11:58:30;;;;;;;7.15;2.13;;;16.00;40.10;;;;;;4985888;28;20802;-73
2021/04/22 12:01:02;;;;;;;9.27;2.55;;;15.60;40.50;;;;;;4984229;28;20030;-73
2021/04/22 12:03:31;;;;;;;7.35;2.10;;;16.40;40.40;;;;;;4988837;28;20026;-73
2021/04/22 12:05:59;;;;;;;8.40;2.50;;;16.70;40.10;;;;;;4973498;28;20121;-73
2021/04/22 12:08:35;;;;;;;4.68;1.95;;;17.00;40.30;;;;;;5006783;28;20048;-74
2021/04/22 12:11:04;;;;;;;8.55;2.70;;;15.30;41.50;;;;;;5001952;28;20121;-75
2021/04/22 12:13:30;;;;;;;6.43;2.47;;;15.20;42.10;;;;;;5004120;28;20105;-75
2021/04/22 12:16:04;;;;;;;6.45;2.28;;;14.70;43.20;;;;;;5000677;28;20026;-73
2021/04/22 12:18:35;;;;;;;4.97;2.13;;;14.00;46.00;;;;;;5006546;28;20033;-72
2021/04/22 12:21:22;;;;;;;;;;;13.30;47.80;;;;;;4984910;28;20550;-74
2021/04/22 12:23:59;;;;;;;7.63;2.08;;;15.70;43.80;;;;;;4987320;28;20347;-73
2021/04/22 12:26:28;;;;;;;4.82;2.20;;;15.80;44.00;;;;;;5009527;28;20017;-76
2021/04/22 12:28:58;;;;;;;6.97;1.98;;;17.10;41.40;;;;;;5009372;28;20022;-79
2021/04/22 12:31:31;;;;;;;8.15;2.65;;;16.70;40.90;;;;;;4994372;28;20026;-76
2021/04/22 12:34:20;;;;;;;7.25;2.80;;;16.60;41.50;;;;;;5009448;28;20033;-77
2021/04/22 12:37:03;;;;;;;8.38;3.28;;;14.60;42.70;;;;;;4982988;28;20046;-76
2021/04/22 12:39:40;;;;;;;7.82;2.30;;;13.80;43.70;;;;;;5008742;28;20060;-73
2021/04/22 12:42:30;;;;;;;9.48;2.13;;;12.90;43.80;;;;;;5008736;28;20030;-75
2021/04/22 12:45:18;;;;;;;4.63;2.00;;;12.90;44.10;;;;;;4991023;28;20030;-71
2021/04/22 12:48:00;;;;;;;6.93;2.00;;;12.80;45.60;;;;;;4982172;28;20072;-75
2021/04/22 12:50:26;;;;;;;4.57;2.20;;;12.80;46.10;;;;;;4989576;28;20034;-72
2021/04/22 12:53:04;;;;;;;6.72;2.75;;;12.90;46.20;;;;;;5007221;28;20029;-73
2021/04/22 12:55:40;;;;;;;7.75;2.63;;;13.30;46.30;;;;;;4992557;28;20441;-76
2021/04/22 12:58:06;;;;;;;9.68;3.22;;;13.70;45.20;;;;;;4990276;28;20545;-72
2021/04/22 13:00:37;;;;;;;8.27;2.17;;;14.00;45.20;;;;;;5007277;28;20037;-73
2021/04/22 13:03:15;;;;;;;6.85;2.88;;;13.40;45.70;;;;;;5009217;28;20037;-71